Time;durP1;ratioP1;P1;durP2;ratioP2;P2;SDS_P1;SDS_P2;PMS_P1;PMS_P2;Temp;Humidity;BMP_temperature;BMP_pressure;BME280_temperature;BME280_humidity;BME280_pressure;Samples;Min_cycle;Max_cycle;Signal;HPM_P1;HPM_P2
2020/12/21 00:01:43;;;;;;;7.97;3.30;;;5.40;91.30;;;;;;4918896;29;20040;-89
2020/12/21 00:04:44;;;;;;;5.90;2.95;;;5.50;91.60;;;;;;4930648;29;20066;-90
2020/12/21 00:08:32;;;;;;;8.70;3.92;;;5.60;91.30;;;;;;4938325;29;20108;-91
2020/12/21 00:11:19;;;;;;;8.27;3.70;;;5.80;90.90;;;;;;4927101;29;20063;-89
2020/12/21 00:14:03;;;;;;;9.63;3.05;;;5.70;91.20;;;;;;4919260;29;20169;-90
2020/12/21 00:17:30;;;;;;;8.15;3.17;;;5.70;90.80;;;;;;4918898;29;20136;-91
2020/12/21 00:20:55;;;;;;;5.72;2.58;;;5.80;90.50;;;;;;4938456;29;20055;-91
2020/12/21 00:23:39;;;;;;;6.88;2.70;;;5.80;90.30;;;;;;4938991;29;20044;-90
2020/12/21 00:26:57;;;;;;;7.00;2.92;;;5.70;90.50;;;;;;4939253;29;20051;-88
2020/12/21 00:30:06;;;;;;;6.70;3.63;;;5.70;90.80;;;;;;4938634;29;20103;-90
2020/12/21 00:32:59;;;;;;;5.35;3.03;;;5.60;91.00;;;;;;4920948;29;20190;-89
2020/12/21 00:35:41;;;;;;;6.88;3.00;;;5.60;90.90;;;;;;4930892;29;20116;-88
2020/12/21 00:38:57;;;;;;;10.23;3.03;;;5.50;91.60;;;;;;4946214;29;20059;-89
2020/12/21 00:42:00;;;;;;;10.68;3.13;;;5.60;91.40;;;;;;4933948;29;20333;-88
2020/12/21 00:44:55;;;;;;;10.10;4.50;;;5.60;91.20;;;;;;4937209;29;20066;-88
2020/12/21 00:47:44;;;;;;;7.30;2.83;;;5.50;92.00;;;;;;4937697;29;20044;-89
2020/12/21 00:50:24;;;;;;;12.23;2.97;;;5.70;91.50;;;;;;4938267;29;20071;-88
2020/12/21 00:53:03;;;;;;;8.48;3.45;;;5.70;91.20;;;;;;4938206;29;20059;-88
2020/12/21 00:55:45;;;;;;;6.55;3.25;;;5.60;91.30;;;;;;4919277;29;20116;-89
2020/12/21 00:58:32;;;;;;;7.68;3.08;;;5.70;91.20;;;;;;4933499;29;20063;-90
2020/12/21 01:01:01;;;;;;;8.18;4.13;;;5.70;91.20;;;;;;4941745;29;20051;-88
2020/12/21 01:03:49;;;;;;;8.93;3.25;;;5.70;91.10;;;;;;4926933;29;20064;-89
2020/12/21 01:07:09;;;;;;;7.70;3.45;;;5.70;91.10;;;;;;4941336;29;20040;-90
2020/12/21 01:09:36;;;;;;;7.28;3.55;;;5.60;91.40;;;;;;4941388;29;20056;-88
2020/12/21 01:12:24;;;;;;;6.07;3.28;;;5.50;91.50;;;;;;4938043;29;20052;-89
2020/12/21 01:15:03;;;;;;;8.13;3.72;;;5.50;91.70;;;;;;4925516;29;20062;-88
2020/12/21 01:18:19;;;;;;;8.88;3.47;;;5.60;91.60;;;;;;4942133;29;20043;-89
2020/12/21 01:20:57;;;;;;;9.20;4.00;;;5.60;91.30;;;;;;4941700;29;20056;-89
2020/12/21 01:24:04;;;;;;;;;;;;;;;;;;;;;
2020/12/21 01:26:41;;;;;;;7.13;3.05;;;5.60;91.50;;;;;;4926708;29;20047;-89
2020/12/21 01:29:13;;;;;;;5.28;2.40;;;5.70;90.80;;;;;;4940554;29;20052;-88
2020/12/21 01:32:03;;;;;;;6.78;2.80;;;5.60;91.40;;;;;;4941389;29;20164;-88
2020/12/21 01:34:41;;;;;;;5.30;2.63;;;5.70;91.30;;;;;;4919006;29;20052;-89
2020/12/21 01:38:02;;;;;;;6.05;3.05;;;5.70;91.00;;;;;;4955827;29;20114;-88
2020/12/21 01:40:57;;;;;;;5.93;3.03;;;5.70;91.20;;;;;;4932304;29;20060;-89
2020/12/21 01:43:44;;;;;;;5.25;2.90;;;5.70;91.50;;;;;;4941453;29;20051;-88
2020/12/21 01:47:00;;;;;;;6.28;3.13;;;5.70;91.50;;;;;;4939469;29;20052;-88
2020/12/21 01:49:34;;;;;;;8.00;2.80;;;5.70;91.80;;;;;;4932938;29;20044;-88
2020/12/21 01:52:51;;;;;;;;;;;;;;;;;;;;;
2020/12/21 01:55:35;;;;;;;7.70;3.08;;;5.70;91.00;;;;;;4923795;29;20131;-87
2020/12/21 01:58:19;;;;;;;10.05;3.38;;;5.70;91.10;;;;;;4938923;29;20119;-89
2020/12/21 02:01:03;;;;;;;6.05;2.75;;;5.70;91.30;;;;;;4933566;29;20048;-89
2020/12/21 02:03:58;;;;;;;7.97;3.35;;;5.70;91.60;;;;;;4926145;29;20044;-89
2020/12/21 02:06:34;;;;;;;7.22;3.33;;;5.80;91.50;;;;;;4936372;29;20040;-90
2020/12/21 02:09:19;;;;;;;6.65;2.95;;;5.80;91.10;;;;;;4928434;29;20084;-89
2020/12/21 02:12:17;;;;;;;7.03;3.92;;;5.80;91.10;;;;;;4919367;29;20048;-90
2020/12/21 02:15:26;;;;;;;8.73;3.97;;;5.80;91.10;;;;;;4940245;29;20071;-88
2020/12/21 02:18:01;;;;;;;8.82;3.22;;;5.90;90.70;;;;;;4923042;29;20048;-89
2020/12/21 02:20:55;;;;;;;6.00;2.72;;;5.80;91.00;;;;;;4940370;29;20056;-90
2020/12/21 02:23:25;;;;;;;8.93;3.17;;;5.80;91.00;;;;;;4935853;29;20080;-89
2020/12/21 02:25:55;;;;;;;8.02;3.17;;;5.80;90.90;;;;;;4939990;29;20036;-89
2020/12/21 02:28:38;;;;;;;7.33;3.20;;;5.80;90.50;;;;;;4942436;29;20118;-90
2020/12/21 02:31:35;;;;;;;8.57;3.97;;;5.80;90.50;;;;;;4926120;29;20304;-89
2020/12/21 02:34:07;;;;;;;5.47;3.25;;;5.80;90.80;;;;;;4923368;29;20051;-90
2020/12/21 02:36:49;;;;;;;8.98;3.15;;;5.90;90.60;;;;;;4939678;29;20063;-89
2020/12/21 02:39:26;;;;;;;7.35;3.13;;;5.90;90.50;;;;;;4956178;29;20103;-88
2020/12/21 02:42:01;;;;;;;8.13;3.45;;;5.90;90.40;;;;;;4940009;29;20120;-90
2020/12/21 02:44:32;;;;;;;7.75;4.00;;;5.90;90.60;;;;;;4923058;29;20048;-89
2020/12/21 02:47:19;;;;;;;6.80;3.03;;;5.80;90.90;;;;;;4952509;29;20122;-90
2020/12/21 02:49:47;;;;;;;9.27;3.92;;;5.70;91.10;;;;;;4941509;29;20071;-88
2020/12/21 02:52:20;;;;;;;7.53;3.53;;;5.70;91.70;;;;;;4922881;29;20111;-89
2020/12/21 02:54:58;;;;;;;8.73;2.88;;;5.80;91.70;;;;;;4939896;29;20052;-88
2020/12/21 02:57:27;;;;;;;6.45;3.05;;;5.90;90.90;;;;;;4938379;29;20055;-89
2020/12/21 03:00:00;;;;;;;7.32;3.78;;;5.90;90.80;;;;;;4938958;29;20251;-89
2020/12/21 03:02:28;;;;;;;7.72;2.92;;;5.80;90.90;;;;;;4936604;29;20046;-89
2020/12/21 03:08:31;;;;;;;8.07;3.22;;;5.80;90.80;;;;;;4913190;29;20048;-89
2020/12/21 03:12:04;;;;;;;11.30;3.40;;;5.90;90.90;;;;;;4929001;29;20116;-89
2020/12/21 03:14:48;;;;;;;7.63;3.20;;;5.80;91.00;;;;;;4932633;29;20032;-91
2020/12/21 03:17:15;;;;;;;5.53;2.38;;;5.90;90.90;;;;;;4935052;29;20043;-90
2020/12/21 03:19:45;;;;;;;9.80;3.72;;;5.80;90.70;;;;;;4937892;29;20048;-90
2020/12/21 03:22:18;;;;;;;8.82;3.55;;;5.70;91.30;;;;;;4937154;29;20128;-89
2020/12/21 03:24:47;;;;;;;8.00;3.28;;;5.70;91.50;;;;;;4931931;29;20059;-91
2020/12/21 03:30:52;;;;;;;5.68;3.08;;;6.00;90.90;;;;;;4897251;29;20056;-88
2020/12/21 03:33:41;;;;;;;9.10;3.50;;;5.80;90.80;;;;;;4930894;29;20044;-90
2020/12/21 03:36:09;;;;;;;9.35;4.72;;;5.80;91.30;;;;;;4922400;29;20107;-89
2020/12/21 03:38:50;;;;;;;6.60;3.08;;;5.80;91.20;;;;;;4939337;29;20046;-88
2020/12/21 03:41:20;;;;;;;10.52;4.00;;;5.90;91.10;;;;;;4938348;29;20064;-89
2020/12/21 03:43:54;;;;;;;5.70;2.58;;;5.80;91.20;;;;;;4940271;29;20080;-89
2020/12/21 03:46:30;;;;;;;7.72;3.33;;;5.80;91.40;;;;;;4949117;29;20052;-90
2020/12/21 03:48:58;;;;;;;9.82;2.75;;;5.90;91.20;;;;;;4928259;29;20076;-91
2020/12/21 03:51:30;;;;;;;7.05;3.67;;;5.80;91.50;;;;;;4934587;29;20051;-89
2020/12/21 03:54:02;;;;;;;8.10;3.03;;;5.70;91.90;;;;;;4937145;29;20048;-88
2020/12/21 03:56:38;;;;;;;10.38;3.70;;;5.90;91.30;;;;;;4937278;29;20064;-89
2020/12/21 03:59:10;;;;;;;7.13;3.63;;;5.90;91.10;;;;;;4932179;29;20052;-88
2020/12/21 04:01:54;;;;;;;8.07;3.42;;;5.90;90.60;;;;;;4937158;29;20048;-89
2020/12/21 04:04:42;;;;;;;7.47;4.47;;;5.90;90.70;;;;;;4935083;29;20072;-87
2020/12/21 04:07:11;;;;;;;7.30;3.35;;;5.90;90.90;;;;;;4937671;29;20073;-89
2020/12/21 04:09:40;;;;;;;7.65;3.58;;;5.90;90.70;;;;;;4930963;29;20060;-89
2020/12/21 04:12:21;;;;;;;8.40;3.65;;;5.90;90.80;;;;;;4936478;29;20059;-90
2020/12/21 04:14:49;;;;;;;8.82;3.65;;;5.80;91.50;;;;;;4938500;29;20044;-90
2020/12/21 04:17:24;;;;;;;7.95;3.55;;;5.80;91.20;;;;;;4936315;29;20048;-89
2020/12/21 04:19:56;;;;;;;10.48;4.10;;;5.90;91.00;;;;;;4933618;29;20056;-89
2020/12/21 04:22:36;;;;;;;8.50;3.60;;;5.90;90.50;;;;;;4937608;29;20071;-88
2020/12/21 04:25:35;;;;;;;11.02;4.97;;;5.90;90.70;;;;;;4914428;29;20051;-89
2020/12/21 04:28:05;;;;;;;9.00;4.03;;;5.90;90.70;;;;;;4938655;29;20060;-89
2020/12/21 04:30:39;;;;;;;8.32;3.75;;;6.00;90.20;;;;;;4936238;29;20075;-89
2020/12/21 04:33:14;;;;;;;6.88;2.95;;;5.90;90.60;;;;;;4925630;29;20044;-90
2020/12/21 04:35:53;;;;;;;12.82;6.68;;;5.90;90.50;;;;;;4924873;29;20083;-89
2020/12/21 04:38:25;;;;;;;15.07;4.65;;;6.00;90.30;;;;;;4942174;29;20048;-88
2020/12/21 04:40:59;;;;;;;8.35;4.07;;;6.00;90.70;;;;;;4941223;29;20056;-90
2020/12/21 04:43:36;;;;;;;7.25;3.20;;;5.90;91.00;;;;;;4942787;29;20051;-88
2020/12/21 04:46:39;;;;;;;7.47;3.17;;;5.90;90.90;;;;;;4941490;29;20161;-88
2020/12/21 04:49:09;;;;;;;6.25;2.65;;;5.90;90.80;;;;;;4941852;29;20067;-89
2020/12/21 04:51:56;;;;;;;10.07;3.95;;;5.80;90.70;;;;;;4941445;29;20056;-88
2020/12/21 04:54:41;;;;;;;10.80;4.13;;;5.80;91.00;;;;;;4942283;29;20085;-90
2020/12/21 04:57:18;;;;;;;5.82;2.85;;;5.90;90.50;;;;;;4921229;29;20048;-88
2020/12/21 04:59:49;;;;;;;7.10;3.15;;;5.80;90.80;;;;;;4941192;29;20052;-89
2020/12/21 05:02:32;;;;;;;8.00;3.03;;;5.80;90.70;;;;;;4925248;29;20068;-88
2020/12/21 05:05:08;;;;;;;8.90;3.42;;;5.90;90.70;;;;;;4942037;29;20059;-88
2020/12/21 05:07:46;;;;;;;7.47;2.88;;;5.90;90.40;;;;;;4916077;29;20048;-90
2020/12/21 05:10:15;;;;;;;7.63;3.28;;;5.90;90.10;;;;;;4929791;29;20063;-89
2020/12/21 05:13:20;;;;;;;5.55;2.25;;;5.90;90.30;;;;;;4923991;29;20047;-88
2020/12/21 05:16:00;;;;;;;8.85;2.67;;;5.80;90.10;;;;;;4915605;29;20052;-89
2020/12/21 05:18:43;;;;;;;7.90;3.08;;;5.90;90.10;;;;;;4941501;29;20056;-88
2020/12/21 05:21:18;;;;;;;7.60;3.03;;;5.80;90.20;;;;;;4925187;29;20052;-89
2020/12/21 05:23:57;;;;;;;6.18;3.08;;;5.80;90.30;;;;;;4924231;29;20047;-88
2020/12/21 05:26:38;;;;;;;8.13;3.65;;;5.90;90.70;;;;;;4969736;29;20108;-88
2020/12/21 05:29:25;;;;;;;9.20;3.25;;;5.90;90.80;;;;;;4939039;29;20127;-89
2020/12/21 05:32:26;;;;;;;8.00;3.35;;;6.00;91.10;;;;;;4941557;29;20048;-88
2020/12/21 05:35:26;;;;;;;7.90;3.72;;;5.80;91.20;;;;;;4940490;29;20068;-88
2020/12/21 05:38:18;;;;;;;12.60;4.15;;;5.80;91.50;;;;;;4938862;29;20112;-89
2020/12/21 05:41:28;;;;;;;8.23;3.28;;;5.70;91.40;;;;;;4940939;29;20032;-88
2020/12/21 05:44:08;;;;;;;10.27;4.00;;;5.70;91.50;;;;;;4925596;29;20084;-88
2020/12/21 05:46:57;;;;;;;16.85;8.77;;;5.80;91.30;;;;;;4921382;29;20119;-90
2020/12/21 05:49:39;;;;;;;8.43;3.85;;;5.70;91.70;;;;;;4941493;29;20040;-88
2020/12/21 05:52:30;;;;;;;9.55;2.97;;;5.70;91.30;;;;;;4924570;29;20071;-88
2020/12/21 05:55:08;;;;;;;9.45;3.20;;;5.70;90.90;;;;;;4940825;29;20056;-88
2020/12/21 05:57:42;;;;;;;6.15;3.05;;;5.60;90.60;;;;;;4934370;29;20052;-87
2020/12/21 06:00:33;;;;;;;8.60;3.13;;;5.50;90.90;;;;;;4941688;29;20052;-89
2020/12/21 06:03:11;;;;;;;7.80;3.35;;;5.50;91.50;;;;;;4946552;29;20048;-88
2020/12/21 06:06:06;;;;;;;4.97;2.17;;;5.50;91.40;;;;;;4927474;29;20099;-88
2020/12/21 06:08:35;;;;;;;7.18;2.97;;;5.60;91.30;;;;;;4940214;29;20127;-88
2020/12/21 06:11:21;;;;;;;5.70;2.75;;;5.50;91.50;;;;;;4939127;29;20063;-89
2020/12/21 06:13:59;;;;;;;7.90;3.55;;;5.60;91.40;;;;;;4939090;29;20067;-89
2020/12/21 06:16:32;;;;;;;7.57;3.00;;;5.70;91.10;;;;;;4941996;29;20051;-90
2020/12/21 06:19:08;;;;;;;7.47;3.05;;;5.70;91.20;;;;;;4939770;29;20048;-88
2020/12/21 06:22:03;;;;;;;9.27;4.10;;;5.70;91.50;;;;;;4926410;29;20063;-89
2020/12/21 06:24:46;;;;;;;7.93;3.10;;;5.60;91.90;;;;;;4939582;29;20044;-88
2020/12/21 06:27:36;;;;;;;7.32;3.55;;;5.70;91.60;;;;;;4929671;29;20052;-89
2020/12/21 06:30:16;;;;;;;8.27;3.28;;;5.70;91.20;;;;;;4942810;29;20044;-88
2020/12/21 06:33:23;;;;;;;7.32;3.38;;;5.70;90.90;;;;;;4939285;29;20048;-88
2020/12/21 06:36:14;;;;;;;7.13;3.10;;;5.70;90.90;;;;;;4922042;29;20064;-89
2020/12/21 06:38:52;;;;;;;10.13;3.83;;;5.70;90.70;;;;;;4939498;29;20079;-88
2020/12/21 06:41:28;;;;;;;6.97;2.85;;;5.60;91.10;;;;;;4953090;29;20068;-88
2020/12/21 06:44:03;;;;;;;8.75;3.85;;;5.50;91.20;;;;;;4941196;29;20054;-88
2020/12/21 06:46:36;;;;;;;7.18;2.75;;;5.40;91.40;;;;;;4939537;29;20374;-89
2020/12/21 06:49:17;;;;;;;5.80;2.65;;;5.40;91.40;;;;;;4946236;29;20067;-88
2020/12/21 06:52:01;;;;;;;6.55;2.90;;;5.40;91.10;;;;;;4939251;29;20086;-89
2020/12/21 06:54:43;;;;;;;6.30;3.30;;;5.30;91.30;;;;;;4944794;29;20091;-90
2020/12/21 06:57:16;;;;;;;6.70;3.30;;;5.30;91.50;;;;;;4938274;29;20048;-88
2020/12/21 07:00:00;;;;;;;5.57;2.63;;;5.20;91.40;;;;;;4934331;29;20075;-89
2020/12/21 07:02:32;;;;;;;6.05;2.92;;;5.20;91.60;;;;;;4958000;29;20063;-89
2020/12/21 07:05:11;;;;;;;9.60;3.13;;;5.10;91.80;;;;;;4923220;29;20123;-90
2020/12/21 07:07:58;;;;;;;6.10;2.92;;;5.10;92.00;;;;;;4919942;29;20056;-89
2020/12/21 07:10:30;;;;;;;8.52;3.72;;;5.10;92.00;;;;;;4911048;29;20179;-88
2020/12/21 07:13:16;;;;;;;6.28;2.67;;;5.00;92.10;;;;;;4926701;29;20056;-87
2020/12/21 07:15:51;;;;;;;7.55;3.92;;;5.00;92.30;;;;;;4919808;29;20079;-89
2020/12/21 07:18:26;;;;;;;6.45;2.70;;;5.00;92.30;;;;;;4934290;29;20072;-88
2020/12/21 07:21:28;;;;;;;6.55;3.38;;;4.90;92.40;;;;;;4939108;29;20059;-89
2020/12/21 07:24:30;;;;;;;7.20;2.72;;;4.90;92.70;;;;;;4905089;29;20055;-88
2020/12/21 07:27:31;;;;;;;5.10;2.55;;;4.80;92.70;;;;;;4903557;29;20040;-89
2020/12/21 07:30:07;;;;;;;6.68;2.72;;;4.80;92.90;;;;;;4925228;29;20068;-89
2020/12/21 07:32:43;;;;;;;5.90;2.35;;;4.70;93.00;;;;;;4938813;29;20056;-89
2020/12/21 07:35:13;;;;;;;8.68;3.28;;;4.70;93.00;;;;;;4919381;29;20092;-89
2020/12/21 07:37:54;;;;;;;8.10;3.15;;;4.70;93.00;;;;;;4930551;29;20093;-89
2020/12/21 07:40:44;;;;;;;7.22;3.22;;;4.70;93.10;;;;;;4927473;29;20059;-90
2020/12/21 07:43:18;;;;;;;5.93;3.08;;;4.60;93.10;;;;;;4938997;29;20052;-89
2020/12/21 07:45:58;;;;;;;6.53;3.35;;;4.60;93.20;;;;;;4938366;29;20048;-88
2020/12/21 07:48:41;;;;;;;6.22;2.90;;;4.50;93.30;;;;;;4925712;29;20064;-88
2020/12/21 07:51:21;;;;;;;6.25;2.83;;;4.50;93.40;;;;;;4957404;29;20153;-88
2020/12/21 07:54:02;;;;;;;6.50;3.45;;;4.50;93.50;;;;;;4954948;29;20075;-89
2020/12/21 07:56:35;;;;;;;9.60;4.70;;;4.50;93.50;;;;;;4922606;29;20084;-89
2020/12/21 07:59:48;;;;;;;8.63;4.03;;;4.50;93.40;;;;;;4944924;29;20040;-88
2020/12/21 08:03:02;;;;;;;8.25;4.38;;;4.60;93.60;;;;;;4916585;29;20091;-89
2020/12/21 08:05:55;;;;;;;7.25;3.50;;;4.50;93.70;;;;;;4926365;29;20072;-88
2020/12/21 08:09:07;;;;;;;6.40;3.05;;;4.70;93.60;;;;;;4938209;29;20270;-89
2020/12/21 08:11:46;;;;;;;7.47;4.03;;;4.70;93.50;;;;;;4937442;29;20062;-88
2020/12/21 08:14:22;;;;;;;9.05;3.92;;;4.90;93.40;;;;;;4938175;29;20048;-90
2020/12/21 08:17:18;;;;;;;8.15;2.97;;;5.00;92.90;;;;;;4937928;29;20071;-88
2020/12/21 08:19:59;;;;;;;11.65;3.15;;;5.10;92.40;;;;;;4950732;29;20115;-88
2020/12/21 08:22:37;;;;;;;;;;;5.20;92.30;;;;;;4937701;29;20040;-88
2020/12/21 08:25:37;;;;;;;6.38;2.60;;;5.20;92.30;;;;;;4930111;29;19934;-90
2020/12/21 08:28:10;;;;;;;8.77;3.97;;;5.30;91.90;;;;;;4937945;29;20048;-89
2020/12/21 08:30:47;;;;;;;8.35;4.07;;;5.40;91.80;;;;;;4937992;29;20045;-90
2020/12/21 08:33:23;;;;;;;6.95;3.10;;;5.40;91.80;;;;;;4940683;29;20047;-89
2020/12/21 08:35:52;;;;;;;8.43;3.75;;;5.50;91.60;;;;;;4937754;29;20147;-88
2020/12/21 08:38:23;;;;;;;7.43;3.78;;;5.60;91.20;;;;;;4938326;29;20044;-90
2020/12/21 08:40:58;;;;;;;10.27;4.35;;;5.60;91.00;;;;;;4937342;29;20059;-89
2020/12/21 08:43:48;;;;;;;11.90;4.00;;;5.60;91.00;;;;;;4940389;29;20060;-89
2020/12/21 08:47:28;;;;;;;6.35;2.47;;;5.70;90.80;;;;;;4940285;29;20048;-89
2020/12/21 08:50:49;;;;;;;70.47;28.65;;;5.70;90.70;;;;;;4923479;29;20057;-89
2020/12/21 08:53:57;;;;;;;76.43;40.10;;;5.70;91.00;;;;;;4935827;29;20060;-89
2020/12/21 08:56:37;;;;;;;43.75;23.42;;;5.70;90.70;;;;;;4938243;29;20044;-88
2020/12/21 09:00:05;;;;;;;24.77;13.02;;;5.70;90.80;;;;;;4943612;29;20380;-89
2020/12/21 09:03:10;;;;;;;11.43;7.05;;;5.70;91.00;;;;;;4919184;29;20071;-88
2020/12/21 09:06:07;;;;;;;14.52;8.23;;;5.90;91.00;;;;;;4931473;29;20044;-88
2020/12/21 09:08:50;;;;;;;10.45;7.05;;;6.00;90.20;;;;;;4940040;29;20111;-89
2020/12/21 09:12:12;;;;;;;15.40;6.63;;;6.00;90.10;;;;;;4937877;29;20040;-88
2020/12/21 09:14:47;;;;;;;11.05;6.20;;;5.90;90.60;;;;;;4923193;29;20071;-90
2020/12/21 09:17:25;;;;;;;7.93;4.07;;;6.00;90.70;;;;;;4924045;29;20052;-89
2020/12/21 09:20:00;;;;;;;6.22;3.10;;;6.10;90.20;;;;;;4926327;29;20048;-89
2020/12/21 09:22:40;;;;;;;7.20;3.15;;;6.10;90.10;;;;;;4911735;29;20040;-89
2020/12/21 09:25:16;;;;;;;9.40;3.72;;;6.10;90.30;;;;;;4942487;29;20040;-87
2020/12/21 09:28:08;;;;;;;11.77;3.92;;;6.10;89.70;;;;;;4939369;29;20060;-88
2020/12/21 09:31:15;;;;;;;7.00;3.85;;;6.20;89.80;;;;;;4938242;29;20055;-89
2020/12/21 09:34:49;;;;;;;5.25;2.05;;;6.20;89.40;;;;;;4935351;29;20036;-90
2020/12/21 09:37:51;;;;;;;5.68;2.67;;;6.30;89.40;;;;;;4953778;29;20063;-90
2020/12/21 09:40:53;;;;;;;4.25;2.22;;;6.20;89.30;;;;;;4939163;29;20045;-88
2020/12/21 09:43:31;;;;;;;9.65;3.20;;;6.20;89.80;;;;;;4938994;29;20035;-89
2020/12/21 09:46:08;;;;;;;6.45;3.08;;;6.30;89.20;;;;;;4943243;29;20056;-88
2020/12/21 09:49:06;;;;;;;6.68;2.55;;;6.30;88.90;;;;;;4941665;29;20040;-89
2020/12/21 09:51:54;;;;;;;4.10;2.30;;;6.40;89.30;;;;;;4932576;29;20075;-89
2020/12/21 09:55:32;;;;;;;6.68;1.92;;;6.40;88.80;;;;;;4934516;29;20077;-88
2020/12/21 09:58:51;;;;;;;5.97;2.13;;;6.40;88.20;;;;;;4927508;29;20044;-90
2020/12/21 10:01:57;;;;;;;5.05;2.15;;;6.40;89.10;;;;;;4922972;29;20052;-88
2020/12/21 10:05:10;;;;;;;4.53;2.08;;;6.50;88.80;;;;;;4941636;29;20040;-89
2020/12/21 10:12:24;;;;;;;4.32;2.00;;;6.60;88.50;;;;;;4851764;29;20044;-88
2020/12/21 10:15:21;;;;;;;6.95;2.47;;;6.70;88.40;;;;;;4857172;29;20138;-88
2020/12/21 10:18:19;;;;;;;6.93;2.38;;;6.70;88.30;;;;;;4872398;29;20069;-90
2020/12/21 10:22:04;;;;;;;7.78;2.05;;;6.60;88.20;;;;;;4817137;29;20053;-88
2020/12/21 10:29:17;;;;;;;5.57;2.60;;;6.80;88.20;;;;;;4940976;29;20060;-88
2020/12/21 10:31:53;;;;;;;5.15;2.70;;;7.00;87.90;;;;;;4929074;29;20064;-89
2020/12/21 10:35:12;;;;;;;6.40;2.97;;;7.10;87.70;;;;;;4941801;29;20052;-88
2020/12/21 10:48:52;;;;;;;7.50;2.78;;;8.40;84.00;;;;;;4932316;29;20500;-87
2020/12/21 10:52:35;;;;;;;5.72;2.35;;;8.30;83.20;;;;;;4940789;29;20036;-90
2020/12/21 10:55:31;;;;;;;6.53;2.88;;;8.30;83.90;;;;;;4929716;29;20080;-90
2020/12/21 10:58:51;;;;;;;8.02;2.20;;;8.20;84.10;;;;;;4941125;29;20051;-89
2020/12/21 11:02:01;;;;;;;5.57;2.75;;;8.00;84.50;;;;;;4940558;29;20047;-92
2020/12/21 11:10:44;;;;;;;5.13;2.63;;;7.90;85.50;;;;;;4930201;24;20070;-91
2020/12/21 11:13:24;;;;;;;6.82;2.58;;;7.90;85.30;;;;;;4932943;29;20048;-89
2020/12/21 11:15:56;;;;;;;6.28;2.88;;;7.80;85.80;;;;;;4938850;29;20052;-88
2020/12/21 11:18:29;;;;;;;6.30;3.17;;;7.80;85.70;;;;;;4938012;29;20055;-89
2020/12/21 11:21:01;;;;;;;7.90;2.92;;;7.70;86.10;;;;;;4935643;29;20048;-88
2020/12/21 11:23:53;;;;;;;6.05;2.78;;;7.70;86.40;;;;;;4938144;29;20052;-89
2020/12/21 11:26:23;;;;;;;6.07;2.65;;;7.70;86.60;;;;;;4924372;29;20051;-87
2020/12/21 11:28:53;;;;;;;7.73;3.27;;;7.80;86.60;;;;;;4939624;29;20123;-89
2020/12/21 11:31:37;;;;;;;7.80;2.88;;;7.70;86.20;;;;;;4949818;29;20051;-90
2020/12/21 11:34:43;;;;;;;7.00;2.80;;;7.80;86.40;;;;;;4933507;29;20048;-89
2020/12/21 11:37:14;;;;;;;7.07;3.45;;;7.70;86.50;;;;;;4948906;29;20063;-90
2020/12/21 11:39:46;;;;;;;6.97;3.22;;;7.70;86.40;;;;;;4954925;29;20055;-89
2020/12/21 11:42:19;;;;;;;6.97;2.65;;;7.70;86.60;;;;;;4940536;29;20056;-88
2020/12/21 11:45:15;;;;;;;7.55;3.20;;;7.80;86.30;;;;;;4950913;29;20044;-89
2020/12/21 11:47:57;;;;;;;9.15;3.13;;;7.80;86.10;;;;;;4926494;29;20112;-87
2020/12/21 11:50:40;;;;;;;7.65;3.40;;;7.80;86.10;;;;;;4928536;29;20115;-89
2020/12/21 11:53:19;;;;;;;9.63;2.90;;;7.70;86.60;;;;;;4922576;29;20047;-88
2020/12/21 11:56:13;;;;;;;6.22;2.53;;;7.70;86.50;;;;;;4936970;29;20064;-89
2020/12/21 11:58:59;;;;;;;6.60;3.20;;;7.70;86.90;;;;;;4938385;29;20064;-88
2020/12/21 12:01:29;;;;;;;6.68;2.97;;;7.70;86.70;;;;;;4938593;29;20056;-88
2020/12/21 12:04:11;;;;;;;7.15;2.95;;;7.90;86.10;;;;;;5062414;23;20086;-88
2020/12/21 12:06:43;;;;;;;6.00;2.50;;;8.00;85.90;;;;;;4865005;29;20053;-88
2020/12/21 12:09:35;;;;;;;6.68;2.95;;;8.40;85.40;;;;;;4872659;29;20053;-90
2020/12/21 12:12:03;;;;;;;7.50;2.65;;;8.70;84.00;;;;;;4860502;29;20249;-88
2020/12/21 12:14:53;;;;;;;7.85;3.20;;;8.70;83.60;;;;;;4884072;29;20053;-88
2020/12/21 12:17:35;;;;;;;8.43;2.50;;;8.70;83.70;;;;;;4881049;29;20053;-90
2020/12/21 12:20:08;;;;;;;6.95;2.65;;;8.70;84.10;;;;;;4881107;29;20058;-89
2020/12/21 12:22:54;;;;;;;6.97;2.95;;;8.60;83.60;;;;;;4893182;29;20052;-88
2020/12/21 12:25:41;;;;;;;7.25;3.63;;;8.70;84.00;;;;;;4902205;29;20060;-89
2020/12/21 12:28:26;;;;;;;10.95;3.40;;;8.70;83.80;;;;;;4882908;29;20089;-88
2020/12/21 12:31:14;;;;;;;6.55;2.78;;;8.60;84.20;;;;;;4881814;29;20030;-89
2020/12/21 12:33:58;;;;;;;7.03;3.20;;;8.50;84.40;;;;;;4881576;29;20053;-88
2020/12/21 12:36:27;;;;;;;;;;;8.40;84.90;;;;;;4895217;29;20158;-87
2020/12/21 12:39:02;;;;;;;6.95;2.92;;;8.50;84.90;;;;;;4869616;29;19955;-90
2020/12/21 12:41:41;;;;;;;6.25;3.10;;;8.60;84.10;;;;;;4894488;29;20050;-88
2020/12/21 12:44:28;;;;;;;8.45;2.85;;;8.40;84.60;;;;;;4867039;29;20052;-89
2020/12/21 12:47:07;;;;;;;9.02;3.15;;;8.40;84.90;;;;;;4880402;29;20041;-89
2020/12/21 12:49:43;;;;;;;5.63;2.45;;;8.40;85.00;;;;;;4893318;29;20058;-89
2020/12/21 12:52:15;;;;;;;7.28;3.03;;;8.40;84.90;;;;;;4866370;29;20065;-91
2020/12/21 12:55:16;;;;;;;6.55;2.50;;;8.30;85.60;;;;;;4893013;29;20045;-88
2020/12/21 12:57:54;;;;;;;5.97;2.55;;;8.40;85.30;;;;;;4870649;29;20046;-88
2020/12/21 13:00:31;;;;;;;6.55;2.72;;;8.40;85.50;;;;;;4880980;29;20167;-89
2020/12/21 13:03:14;;;;;;;6.88;3.13;;;8.40;85.70;;;;;;4873961;29;20078;-87
2020/12/21 13:05:45;;;;;;;7.85;3.35;;;8.40;85.50;;;;;;4890060;29;20061;-88
2020/12/21 13:08:27;;;;;;;7.50;3.22;;;8.30;85.70;;;;;;4893195;29;20348;-89
2020/12/21 13:10:58;;;;;;;6.28;3.05;;;8.40;86.00;;;;;;4873111;29;20067;-88
2020/12/21 13:13:29;;;;;;;5.38;2.50;;;8.40;85.60;;;;;;4882901;29;20069;-88
2020/12/21 13:16:00;;;;;;;6.50;2.63;;;8.50;85.40;;;;;;4879315;29;20078;-89
2020/12/21 13:18:39;;;;;;;6.40;2.88;;;8.40;85.40;;;;;;4883131;29;20080;-87
2020/12/21 13:21:26;;;;;;;7.85;2.75;;;8.50;85.40;;;;;;4884286;29;20045;-90
2020/12/21 13:24:06;;;;;;;8.63;3.30;;;8.40;85.30;;;;;;4880332;29;20053;-89
2020/12/21 13:26:38;;;;;;;8.23;3.25;;;8.50;85.30;;;;;;4881932;29;20052;-91
2020/12/21 13:29:11;;;;;;;5.57;2.63;;;8.50;84.80;;;;;;4868621;29;20045;-89
2020/12/21 13:31:38;;;;;;;6.60;3.38;;;8.50;85.30;;;;;;4880360;29;20064;-89
2020/12/21 13:34:05;;;;;;;6.75;2.83;;;8.60;85.00;;;;;;4899295;29;20059;-88
2020/12/21 13:36:36;;;;;;;7.47;3.15;;;8.50;84.90;;;;;;4882570;29;20105;-90
2020/12/21 13:39:05;;;;;;;;;;;8.50;84.80;;;;;;4878448;29;20049;-89
2020/12/21 13:41:43;;;;;;;6.43;2.72;;;8.40;85.50;;;;;;4897054;29;19923;-87
2020/12/21 13:44:16;;;;;;;6.65;2.85;;;8.40;85.30;;;;;;4885624;29;20056;-88
2020/12/21 13:46:54;;;;;;;7.20;3.22;;;8.40;85.30;;;;;;4867283;29;20042;-88
2020/12/21 13:49:23;;;;;;;10.05;3.75;;;8.20;85.50;;;;;;4889676;29;20054;-87
2020/12/21 13:52:05;;;;;;;7.43;3.33;;;8.10;86.10;;;;;;4877997;29;20150;-88
2020/12/21 13:54:40;;;;;;;7.53;3.38;;;8.00;86.20;;;;;;4883607;29;20118;-88
2020/12/21 13:57:08;;;;;;;7.30;3.70;;;7.90;86.70;;;;;;4878789;29;20054;-90
2020/12/21 13:59:36;;;;;;;9.60;3.78;;;7.80;86.90;;;;;;4881788;29;20121;-90
2020/12/21 14:02:07;;;;;;;10.02;4.40;;;7.70;87.00;;;;;;4877609;29;20112;-89
2020/12/21 14:04:37;;;;;;;7.72;3.97;;;7.70;87.40;;;;;;4883035;29;20049;-88
2020/12/21 14:07:16;;;;;;;11.90;4.40;;;7.70;87.70;;;;;;4882304;29;20063;-88
2020/12/21 14:10:07;;;;;;;8.32;3.58;;;7.60;87.80;;;;;;4879195;29;20301;-89
2020/12/21 14:12:57;;;;;;;9.43;3.63;;;7.60;88.10;;;;;;4859764;29;20114;-89
2020/12/21 14:15:31;;;;;;;7.78;3.78;;;7.60;88.10;;;;;;4883039;29;20099;-87
2020/12/21 14:18:04;;;;;;;8.88;3.92;;;7.60;88.20;;;;;;4875046;29;20338;-89
2020/12/21 14:20:41;;;;;;;7.45;3.83;;;7.60;88.10;;;;;;4883955;29;20065;-91
2020/12/21 14:23:20;;;;;;;8.82;4.00;;;7.60;88.30;;;;;;4880011;29;20113;-88
2020/12/21 14:25:51;;;;;;;9.05;3.65;;;7.50;88.40;;;;;;4871728;29;20049;-88
2020/12/21 14:28:23;;;;;;;11.38;4.97;;;7.40;88.60;;;;;;4865652;29;20056;-88
2020/12/21 14:31:04;;;;;;;10.82;5.18;;;7.40;88.70;;;;;;4882377;29;20416;-89
2020/12/21 14:33:33;;;;;;;9.75;4.72;;;7.40;88.50;;;;;;4868585;29;20053;-87
2020/12/21 14:36:06;;;;;;;8.57;4.15;;;7.40;88.60;;;;;;4865709;29;20052;-89
2020/12/21 14:39:03;;;;;;;12.07;5.25;;;7.40;88.70;;;;;;4868536;29;20054;-89
2020/12/21 14:41:30;;;;;;;8.30;4.20;;;7.40;88.60;;;;;;4872866;29;20073;-87
2020/12/21 14:44:02;;;;;;;12.55;5.10;;;7.40;88.70;;;;;;4878218;29;20046;-88
2020/12/21 14:46:30;;;;;;;13.23;5.93;;;7.30;88.80;;;;;;4880386;29;20061;-87
2020/12/21 14:49:00;;;;;;;11.57;6.43;;;7.30;88.90;;;;;;4872752;29;20057;-88
2020/12/21 14:51:54;;;;;;;13.85;5.78;;;7.30;89.00;;;;;;4873081;29;20067;-90
2020/12/21 14:54:33;;;;;;;14.57;5.55;;;7.10;89.10;;;;;;4863114;29;20345;-89
2020/12/21 14:57:10;;;;;;;11.65;5.88;;;7.10;89.40;;;;;;4878206;29;20092;-90
2020/12/21 14:59:48;;;;;;;11.57;5.75;;;7.10;89.30;;;;;;4872243;29;20063;-89
2020/12/21 15:02:21;;;;;;;16.15;5.85;;;7.10;89.60;;;;;;4882027;29;20094;-89